Time;durP1;ratioP1;P1;durP2;ratioP2;P2;SDS_P1;SDS_P2;PMS_P1;PMS_P2;Temp;Humidity;BMP_temperature;BMP_pressure;BME280_temperature;BME280_humidity;BME280_pressure;Samples;Min_cycle;Max_cycle;Signal;HPM_P1;HPM_P2
2022/11/07 00:01:10;;;;;;;;;;;;;;;8.50;100.00;97272.06;5057405;28;19950;-81
2022/11/07 00:03:36;;;;;;;;;;;;;;;8.43;100.00;97267.66;5041393;28;20293;-80
2022/11/07 00:06:01;;;;;;;;;;;;;;;8.37;100.00;97273.03;5048705;28;19923;-80
2022/11/07 00:08:30;;;;;;;;;;;;;;;8.36;100.00;97269.59;5050854;28;20274;-81
2022/11/07 00:11:02;;;;;;;;;;;;;;;8.39;100.00;97270.97;5044099;28;19912;-81
2022/11/07 00:13:28;;;;;;;;;;;;;;;8.42;100.00;97265.28;5042262;28;19912;-81
2022/11/07 00:15:53;;;;;;;;;;;;;;;8.27;100.00;97263.88;5060253;28;19912;-80
2022/11/07 00:18:21;;;;;;;;;;;;;;;8.37;100.00;97258.13;5053545;28;20365;-80
2022/11/07 00:20:47;;;;;;;;;;;;;;;8.28;100.00;97264.69;5058252;28;19971;-80
2022/11/07 00:23:13;;;;;;;;;;;;;;;8.33;100.00;97264.81;5050099;28;19916;-80
2022/11/07 00:25:38;;;;;;;;;;;;;;;8.49;100.00;97265.97;5056275;28;19931;-81
2022/11/07 00:28:04;;;;;;;;;;;;;;;8.52;100.00;97259.53;5019668;28;20298;-81
2022/11/07 00:30:30;;;;;;;;;;;;;;;8.37;100.00;97247.66;5047457;28;19916;-80
2022/11/07 00:32:55;;;;;;;;;;;;;;;8.37;100.00;97258.13;5051704;28;19920;-81
2022/11/07 00:35:21;;;;;;;;;;;;;;;8.49;100.00;97252.13;5058375;28;20452;-80
2022/11/07 00:37:47;;;;;;;;;;;;;;;8.53;100.00;97246.22;5047991;28;19935;-81
2022/11/07 00:40:13;;;;;;;;;;;;;;;8.46;100.00;97249.97;5035190;28;19955;-81
2022/11/07 00:42:38;;;;;;;;;;;;;;;8.64;100.00;97260.34;5054638;28;19916;-80
2022/11/07 00:45:04;;;;;;;;;;;;;;;8.65;100.00;97261.97;5039068;28;20016;-81
2022/11/07 00:47:30;;;;;;;;;;;;;;;8.63;100.00;97261.38;5039621;28;19947;-80
2022/11/07 00:49:55;;;;;;;;;;;;;;;8.47;100.00;97267.25;5051245;28;19958;-81
2022/11/07 00:52:20;;;;;;;;;;;;;;;8.69;100.00;97260.47;5016286;28;19905;-80
2022/11/07 00:54:46;;;;;;;;;;;;;;;8.59;100.00;97265.47;5056551;28;20310;-80
2022/11/07 00:57:11;;;;;;;;;;;;;;;8.55;100.00;97264.31;5048707;28;20003;-81
2022/11/07 00:59:37;;;;;;;;;;;;;;;8.70;100.00;97267.31;5047797;28;20325;-81
2022/11/07 01:02:05;;;;;;;;;;;;;;;8.67;100.00;97278.22;5059856;28;19962;-82
2022/11/07 01:07:20;;;;;;;;;;;;;;;8.65;100.00;97279.47;5053982;28;19913;-81
2022/11/07 01:09:48;;;;;;;;;;;;;;;8.83;100.00;97281.16;5055960;28;19978;-81
2022/11/07 01:12:14;;;;;;;;;;;;;;;8.90;100.00;97297.56;5048295;28;19958;-82
2022/11/07 01:14:40;;;;;;;;;;;;;;;9.00;100.00;97287.31;5040959;28;19913;-81
2022/11/07 01:17:06;;;;;;;;;;;;;;;9.08;100.00;97282.78;5047426;28;19920;-82
2022/11/07 01:19:31;;;;;;;;;;;;;;;8.89;100.00;97301.22;5038738;28;19916;-81
2022/11/07 01:21:57;;;;;;;;;;;;;;;9.08;100.00;97303.72;5063016;28;20003;-82
2022/11/07 01:24:29;;;;;;;;;;;;;;;9.05;100.00;97318.06;5038523;28;19993;-82
2022/11/07 01:26:57;;;;;;;;;;;;;;;9.03;100.00;97309.66;5042717;28;19990;-81
2022/11/07 01:29:23;;;;;;;;;;;;;;;9.05;100.00;97312.81;5044112;28;19948;-81
2022/11/07 01:31:48;;;;;;;;;;;;;;;8.96;100.00;97317.59;5046390;28;20258;-81
2022/11/07 01:34:14;;;;;;;;;;;;;;;9.04;100.00;97324.31;5050625;28;19912;-81
2022/11/07 01:36:39;;;;;;;;;;;;;;;9.07;100.00;97325.69;5062134;28;20274;-82
2022/11/07 01:39:06;;;;;;;;;;;;;;;9.07;100.00;97333.56;5025578;28;19913;-80
2022/11/07 01:41:33;;;;;;;;;;;;;;;8.93;100.00;97325.91;5052773;28;20027;-81
2022/11/07 01:43:58;;;;;;;;;;;;;;;8.91;100.00;97330.56;5045816;28;19932;-81
2022/11/07 01:46:37;;;;;;;;;;;;;;;8.87;100.00;97329.44;5037603;28;19916;-81
2022/11/07 01:49:12;;;;;;;;;;;;;;;8.78;100.00;97334.19;5049340;28;19917;-80
2022/11/07 01:51:40;;;;;;;;;;;;;;;8.82;100.00;97342.38;5045920;28;19913;-80
2022/11/07 01:54:06;;;;;;;;;;;;;;;8.83;100.00;97347.38;5034879;28;19965;-80
2022/11/07 01:56:33;;;;;;;;;;;;;;;8.87;100.00;97345.13;5044986;28;20003;-80
2022/11/07 01:58:58;;;;;;;;;;;;;;;8.85;100.00;97352.41;5058804;28;19920;-81
2022/11/07 02:01:24;;;;;;;;;;;;;;;8.93;100.00;97346.84;5039979;28;19919;-81
2022/11/07 02:03:50;;;;;;;;;;;;;;;8.78;100.00;97341.22;5053161;28;19923;-81
2022/11/07 02:06:30;;;;;;;;;;;;;;;8.78;100.00;97333.38;5039391;28;19925;-82
2022/11/07 02:08:55;;;;;;;;;;;;;;;8.91;100.00;97335.81;5041171;28;20393;-81
2022/11/07 02:11:21;;;;;;;;;;;;;;;8.98;100.00;97340.94;5045139;28;19913;-81
2022/11/07 02:13:46;;;;;;;;;;;;;;;8.76;100.00;97338.03;5045431;28;20434;-80
2022/11/07 02:16:12;;;;;;;;;;;;;;;8.75;100.00;97342.50;5050748;28;19917;-80
2022/11/07 02:18:39;;;;;;;;;;;;;;;8.68;100.00;97342.59;5022247;28;19951;-80
2022/11/07 02:21:14;;;;;;;;;;;;;;;8.87;100.00;97345.13;5044930;28;19925;-80
2022/11/07 02:23:58;;;;;;;;;;;;;;;8.73;100.00;97357.59;5048592;28;21607;-80
2022/11/07 02:26:24;;;;;;;;;;;;;;;8.92;100.00;97353.09;5056162;28;19931;-80
2022/11/07 02:28:51;;;;;;;;;;;;;;;8.91;100.00;97351.50;5043601;28;19916;-80
2022/11/07 02:31:17;;;;;;;;;;;;;;;8.91;100.00;97348.06;5052616;28;20286;-80
2022/11/07 02:33:42;;;;;;;;;;;;;;;8.76;100.00;97351.13;5038799;28;19921;-80
2022/11/07 02:36:14;;;;;;;;;;;;;;;8.77;100.00;97353.53;5046530;28;19913;-81
2022/11/07 02:38:39;;;;;;;;;;;;;;;8.82;100.00;97364.13;5034083;28;19975;-81
2022/11/07 02:41:14;;;;;;;;;;;;;;;8.75;100.00;97358.19;5041602;28;19944;-81
2022/11/07 02:43:41;;;;;;;;;;;;;;;8.77;100.00;97355.34;5054268;28;19912;-80
2022/11/07 02:46:11;;;;;;;;;;;;;;;8.91;100.00;97364.59;5048860;28;19921;-80
2022/11/07 02:48:41;;;;;;;;;;;;;;;8.77;100.00;97360.56;5057955;28;20001;-81
2022/11/07 02:51:06;;;;;;;;;;;;;;;8.78;100.00;97362.16;5050520;28;19916;-82
2022/11/07 02:53:33;;;;;;;;;;;;;;;8.87;100.00;97366.06;5041661;28;20326;-81
2022/11/07 02:55:58;;;;;;;;;;;;;;;8.91;100.00;97371.63;5059472;28;19912;-81
2022/11/07 02:58:23;;;;;;;;;;;;;;;8.82;100.00;97358.88;5054063;28;19921;-81
2022/11/07 03:00:49;;;;;;;;;;;;;;;8.88;100.00;97356.38;5048162;28;20371;-82
2022/11/07 03:03:14;;;;;;;;;;;;;;;8.95;100.00;97362.31;5054034;28;20020;-82
2022/11/07 03:05:39;;;;;;;;;;;;;;;8.88;100.00;97366.84;5058151;28;19952;-82
2022/11/07 03:08:05;;;;;;;;;;;;;;;8.99;100.00;97373.94;5065502;28;19939;-82
2022/11/07 03:10:30;;;;;;;;;;;;;;;8.85;100.00;97373.34;5058052;28;19920;-82
2022/11/07 03:12:57;;;;;;;;;;;;;;;8.99;100.00;97361.63;5052556;28;19921;-81
2022/11/07 03:15:22;;;;;;;;;;;;;;;8.93;100.00;97370.38;5029508;28;20381;-81
2022/11/07 03:17:47;;;;;;;;;;;;;;;8.79;100.00;97355.91;5050406;28;19917;-82
2022/11/07 03:20:13;;;;;;;;;;;;;;;8.96;100.00;97349.00;5042775;28;19912;-81
2022/11/07 03:22:38;;;;;;;;;;;;;;;8.81;100.00;97357.28;5052898;28;20287;-81
2022/11/07 03:25:04;;;;;;;;;;;;;;;9.05;100.00;97361.78;5046279;28;19927;-81
2022/11/07 03:27:30;;;;;;;;;;;;;;;9.12;100.00;97363.22;5054156;28;20308;-81
2022/11/07 03:29:55;;;;;;;;;;;;;;;9.05;100.00;97367.78;5056036;28;19916;-81
2022/11/07 03:32:22;;;;;;;;;;;;;;;9.25;100.00;97366.66;5056215;28;19923;-82
2022/11/07 03:34:47;;;;;;;;;;;;;;;9.27;100.00;97368.03;5043342;28;20347;-81
2022/11/07 03:37:13;;;;;;;;;;;;;;;9.36;100.00;97367.69;5056031;28;19924;-81
2022/11/07 03:39:38;;;;;;;;;;;;;;;9.31;100.00;97380.69;5055527;28;19913;-81
2022/11/07 03:42:03;;;;;;;;;;;;;;;9.39;100.00;97372.47;5054456;28;19963;-82
2022/11/07 03:44:29;;;;;;;;;;;;;;;9.36;100.00;97380.78;5049887;28;19934;-81
2022/11/07 03:46:55;;;;;;;;;;;;;;;9.26;100.00;97378.72;5061400;28;20007;-82
2022/11/07 03:49:20;;;;;;;;;;;;;;;9.33;100.00;97376.00;5045130;28;19917;-81
2022/11/07 03:51:46;;;;;;;;;;;;;;;9.26;100.00;97373.50;5057937;28;19998;-82
2022/11/07 03:54:11;;;;;;;;;;;;;;;9.20;100.00;97372.56;5060157;28;19912;-82
2022/11/07 03:56:38;;;;;;;;;;;;;;;9.25;100.00;97372.72;5042944;28;20389;-82
2022/11/07 03:59:04;;;;;;;;;;;;;;;9.25;100.00;97367.47;5049075;28;20004;-81
2022/11/07 04:01:29;;;;;;;;;;;;;;;9.13;100.00;97364.81;5049641;28;19913;-81
2022/11/07 04:03:54;;;;;;;;;;;;;;;9.03;100.00;97375.06;5051857;28;20397;-81
2022/11/07 04:06:21;;;;;;;;;;;;;;;9.00;100.00;97372.91;5052668;28;20469;-82
2022/11/07 04:08:47;;;;;;;;;;;;;;;8.99;100.00;97376.53;5058877;28;19913;-82
2022/11/07 04:17:17;;;;;;;;;;;;;;;9.12;100.00;97370.31;5060172;28;19913;-82
2022/11/07 04:19:26;;;;;;;;;;;;;;;9.30;100.00;97372.00;5054828;28;19935;-81
2022/11/07 04:21:51;;;;;;;;;;;;;;;9.31;100.00;97376.22;5055376;28;20354;-81
2022/11/07 04:24:17;;;;;;;;;;;;;;;9.21;100.00;97374.16;5039154;28;19913;-80
2022/11/07 04:29:27;;;;;;;;;;;;;;;9.16;100.00;97378.50;5039581;28;19917;-81
2022/11/07 04:31:52;;;;;;;;;;;;;;;9.17;100.00;97383.50;5050101;28;20264;-82
2022/11/07 04:34:18;;;;;;;;;;;;;;;9.13;100.00;97380.53;5046608;28;19919;-81
2022/11/07 04:36:43;;;;;;;;;;;;;;;9.16;100.00;97378.50;5056334;28;20344;-82
2022/11/07 04:39:09;;;;;;;;;;;;;;;9.18;100.00;97374.63;5049843;28;20015;-81
2022/11/07 04:41:34;;;;;;;;;;;;;;;9.25;100.00;97372.72;5051493;28;20484;-81
2022/11/07 04:44:00;;;;;;;;;;;;;;;9.33;100.00;97376.00;5037903;28;19920;-81
2022/11/07 04:46:25;;;;;;;;;;;;;;;9.38;100.00;97373.50;5026671;28;20262;-81
2022/11/07 04:48:50;;;;;;;;;;;;;;;9.46;100.00;97381.03;5059006;28;19923;-82
2022/11/07 04:51:18;;;;;;;;;;;;;;;9.51;100.00;97365.41;5051301;28;19956;-81
2022/11/07 04:53:44;;;;;;;;;;;;;;;9.54;100.00;97364.97;5054273;28;20342;-81
2022/11/07 04:56:09;;;;;;;;;;;;;;;9.56;100.00;97362.91;5052616;28;20054;-81
2022/11/07 04:58:34;;;;;;;;;;;;;;;9.57;100.00;97363.72;5049409;28;19928;-81
2022/11/07 05:01:00;;;;;;;;;;;;;;;9.61;100.00;97356.97;5051956;28;20035;-80
2022/11/07 05:03:25;;;;;;;;;;;;;;;9.60;100.00;97357.19;5051199;28;19927;-81
2022/11/07 05:05:51;;;;;;;;;;;;;;;9.56;100.00;97368.13;5044586;28;20446;-81
2022/11/07 05:08:16;;;;;;;;;;;;;;;9.46;100.00;97378.41;5038821;28;19913;-82
2022/11/07 05:10:42;;;;;;;;;;;;;;;9.54;100.00;97374.66;5052229;28;19920;-81
2022/11/07 05:13:07;;;;;;;;;;;;;;;9.53;100.00;97389.56;5050922;28;19912;-81
2022/11/07 05:15:32;;;;;;;;;;;;;;;9.48;100.00;97381.59;5054895;28;19912;-80
2022/11/07 05:17:58;;;;;;;;;;;;;;;9.49;100.00;97372.72;5054608;28;19920;-80
2022/11/07 05:20:28;;;;;;;;;;;;;;;9.53;100.00;97367.78;5060173;28;19912;-81
2022/11/07 05:23:13;;;;;;;;;;;;;;;9.50;100.00;97358.59;5043495;28;19957;-81
2022/11/07 05:25:49;;;;;;;;;;;;;;;9.46;100.00;97352.22;5045051;28;19916;-81
2022/11/07 05:28:17;;;;;;;;;;;;;;;9.54;100.00;97369.41;5058303;28;20297;-80
2022/11/07 05:30:43;;;;;;;;;;;;;;;9.48;100.00;97371.13;5051232;28;20356;-81
2022/11/07 05:33:09;;;;;;;;;;;;;;;9.54;100.00;97370.19;5047560;28;19913;-81
2022/11/07 05:35:35;;;;;;;;;;;;;;;9.55;100.00;97374.41;5046410;28;20000;-80
2022/11/07 05:38:01;;;;;;;;;;;;;;;9.42;100.00;97374.63;5037103;28;20008;-81
2022/11/07 05:40:26;;;;;;;;;;;;;;;9.41;100.00;97358.13;5042009;28;19920;-81
2022/11/07 05:42:52;;;;;;;;;;;;;;;9.51;100.00;97373.28;5052238;28;19916;-81
2022/11/07 05:45:17;;;;;;;;;;;;;;;9.44;100.00;97372.59;5051847;28;19917;-80
2022/11/07 05:47:43;;;;;;;;;;;;;;;9.42;100.00;97377.25;5045935;28;19916;-80
2022/11/07 05:50:09;;;;;;;;;;;;;;;9.40;100.00;97389.78;5049071;28;20336;-81
2022/11/07 05:52:34;;;;;;;;;;;;;;;9.46;100.00;97380.22;5050932;28;20441;-81
2022/11/07 05:54:59;;;;;;;;;;;;;;;9.53;100.00;97383.50;5047401;28;20007;-81
2022/11/07 05:57:27;;;;;;;;;;;;;;;9.53;100.00;97386.13;5054974;28;20386;-81
2022/11/07 05:59:53;;;;;;;;;;;;;;;9.66;100.00;97382.50;5039017;28;19908;-81
2022/11/07 06:02:18;;;;;;;;;;;;;;;9.63;100.00;97383.75;5053531;28;19962;-80
2022/11/07 06:04:44;;;;;;;;;;;;;;;9.70;100.00;97376.53;5054273;28;19913;-81
2022/11/07 06:07:09;;;;;;;;;;;;;;;9.71;100.00;97379.97;5049947;28;19913;-80
2022/11/07 06:09:35;;;;;;;;;;;;;;;9.66;100.00;97377.25;5044269;28;20416;-81
2022/11/07 06:12:02;;;;;;;;;;;;;;;9.69;100.00;97382.81;5065215;28;19935;-81
2022/11/07 06:14:28;;;;;;;;;;;;;;;9.80;100.00;97380.44;5029843;28;20247;-80
2022/11/07 06:16:54;;;;;;;;;;;;;;;9.83;100.00;97377.34;5051553;28;19913;-81
2022/11/07 06:19:19;;;;;;;;;;;;;;;9.75;100.00;97382.94;5057109;28;19920;-81
2022/11/07 06:21:44;;;;;;;;;;;;;;;9.82;100.00;97376.53;5046543;28;19920;-81
2022/11/07 06:24:10;;;;;;;;;;;;;;;9.85;100.00;97377.91;5052719;28;19973;-81
2022/11/07 06:26:35;;;;;;;;;;;;;;;9.88;100.00;97380.06;5044224;28;19920;-81
2022/11/07 06:29:01;;;;;;;;;;;;;;;9.88;100.00;97379.28;5056501;28;19961;-81
2022/11/07 06:31:26;;;;;;;;;;;;;;;9.89;100.00;97375.63;5040424;28;20346;-81
2022/11/07 06:33:51;;;;;;;;;;;;;;;9.83;100.00;97382.59;5058596;28;20393;-82
2022/11/07 06:36:17;;;;;;;;;;;;;;;10.03;100.00;97387.47;5054540;28;20346;-82
2022/11/07 06:38:42;;;;;;;;;;;;;;;10.19;100.00;97387.72;5051509;28;19915;-80
2022/11/07 06:41:12;;;;;;;;;;;;;;;10.19;100.00;97382.50;5056149;28;19920;-82
2022/11/07 06:43:37;;;;;;;;;;;;;;;10.39;100.00;97382.88;5053314;28;20361;-81
2022/11/07 06:46:04;;;;;;;;;;;;;;;10.49;100.00;97379.69;5055444;28;19916;-82
2022/11/07 06:48:29;;;;;;;;;;;;;;;10.48;100.00;97387.78;5053123;28;19951;-82
2022/11/07 06:50:59;;;;;;;;;;;;;;;10.50;100.00;97380.50;5045267;28;20066;-81
2022/11/07 06:53:24;;;;;;;;;;;;;;;10.54;100.00;97381.59;5043762;28;20277;-80
2022/11/07 06:55:50;;;;;;;;;;;;;;;10.51;100.00;97382.84;5063130;28;19916;-82
2022/11/07 06:58:15;;;;;;;;;;;;;;;10.37;100.00;97376.28;5053627;28;19935;-80
2022/11/07 07:00:41;;;;;;;;;;;;;;;10.48;100.00;97380.72;5025149;28;19913;-79
2022/11/07 07:03:06;;;;;;;;;;;;;;;10.56;100.00;97390.03;5053871;28;19916;-81
2022/11/07 07:05:32;;;;;;;;;;;;;;;10.57;100.00;97397.69;5052592;28;19971;-81
2022/11/07 07:07:58;;;;;;;;;;;;;;;10.46;100.00;97395.09;5052249;28;19958;-81
2022/11/07 07:10:24;;;;;;;;;;;;;;;10.51;100.00;97397.81;5047455;28;20308;-80
2022/11/07 07:12:49;;;;;;;;;;;;;;;10.67;100.00;97396.25;5056498;28;19923;-82
2022/11/07 07:15:17;;;;;;;;;;;;;;;10.74;100.00;97390.88;5046950;28;19913;-82
2022/11/07 07:17:42;;;;;;;;;;;;;;;10.71;100.00;97392.94;5052126;28;19962;-82
2022/11/07 07:20:08;;;;;;;;;;;;;;;10.74;100.00;97385.63;5046613;28;19920;-82
2022/11/07 07:22:34;;;;;;;;;;;;;;;10.69;100.00;97396.81;5043385;28;19913;-82
2022/11/07 07:24:59;;;;;;;;;;;;;;;10.79;100.00;97396.19;5042728;28;19990;-82
2022/11/07 07:27:24;;;;;;;;;;;;;;;10.78;100.00;97398.03;5043363;28;20022;-82
2022/11/07 07:29:52;;;;;;;;;;;;;;;10.94;100.00;97401.72;5045783;28;19904;-83
2022/11/07 07:32:18;;;;;;;;;;;;;;;11.10;100.00;97399.34;5015320;28;19920;-82
2022/11/07 07:34:44;;;;;;;;;;;;;;;11.16;100.00;97403.63;5035052;28;20345;-83
2022/11/07 07:37:09;;;;;;;;;;;;;;;11.17;100.00;97407.84;5037977;28;20055;-83
2022/11/07 07:39:34;;;;;;;;;;;;;;;11.25;100.00;97407.47;5057310;28;19923;-84
2022/11/07 07:42:00;;;;;;;;;;;;;;;11.18;100.00;97408.66;5050898;28;19952;-83
2022/11/07 07:44:26;;;;;;;;;;;;;;;11.11;100.00;97400.94;5023286;28;19998;-82
2022/11/07 07:46:51;;;;;;;;;;;;;;;11.32;100.00;97409.13;5058640;28;19993;-84
2022/11/07 07:49:17;;;;;;;;;;;;;;;11.20;100.00;97404.78;5040240;28;19924;-84
2022/11/07 07:51:43;;;;;;;;;;;;;;;11.24;100.00;97416.38;5041210;28;20382;-84
2022/11/07 07:54:12;;;;;;;;;;;;;;;11.19;100.00;97420.75;5036801;28;20323;-84
2022/11/07 07:56:37;;;;;;;;;;;;;;;11.18;100.00;97421.78;5053732;28;19980;-84
2022/11/07 07:59:03;;;;;;;;;;;;;;;11.45;100.00;97427.19;5019128;28;20369;-83
2022/11/07 08:01:28;;;;;;;;;;;;;;;11.48;100.00;97420.66;5042807;28;19919;-84
2022/11/07 08:03:53;;;;;;;;;;;;;;;11.56;100.00;97423.66;5044618;28;19912;-82
2022/11/07 08:06:19;;;;;;;;;;;;;;;11.43;100.00;97431.91;5056177;28;19917;-84
2022/11/07 08:08:44;;;;;;;;;;;;;;;11.68;100.00;97431.47;5045242;28;19917;-83
2022/11/07 08:11:10;;;;;;;;;;;;;;;11.70;100.00;97425.97;5048949;28;19963;-83
2022/11/07 08:13:35;;;;;;;;;;;;;;;11.78;100.00;97422.13;5045931;28;19912;-83
2022/11/07 08:16:02;;;;;;;;;;;;;;;11.82;100.00;97418.78;5039502;28;19932;-81
2022/11/07 08:18:27;;;;;;;;;;;;;;;11.96;100.00;97413.16;5051455;28;20038;-81
2022/11/07 08:20:54;;;;;;;;;;;;;;;11.86;100.00;97419.88;5036725;28;19987;-81
2022/11/07 08:23:20;;;;;;;;;;;;;;;11.83;100.00;97420.38;5057406;28;19944;-82
2022/11/07 08:25:52;;;;;;;;;;;;;;;11.94;100.00;97423.13;5046482;28;20311;-81
2022/11/07 08:28:19;;;;;;;;;;;;;;;12.02;100.00;97419.31;5055761;28;19920;-81
2022/11/07 08:30:44;;;;;;;;;;;;;;;12.17;100.00;97427.41;5051022;28;19935;-81
2022/11/07 08:33:10;;;;;;;;;;;;;;;12.22;100.00;97424.03;5050286;28;20282;-80
2022/11/07 08:35:35;;;;;;;;;;;;;;;12.37;100.00;97431.31;5053462;28;19924;-81
2022/11/07 08:38:00;;;;;;;;;;;;;;;12.31;100.00;97419.94;5055351;28;20354;-82
2022/11/07 08:40:26;;;;;;;;;;;;;;;12.16;100.00;97425.81;5056290;28;19912;-81
2022/11/07 08:42:57;;;;;;;;;;;;;;;12.42;100.00;97428.75;5041020;28;19920;-82
2022/11/07 08:45:22;;;;;;;;;;;;;;;12.55;100.00;97432.81;5042658;28;19938;-81
2022/11/07 08:47:48;;;;;;;;;;;;;;;12.55;100.00;97438.09;5042131;28;19917;-81
2022/11/07 08:50:13;;;;;;;;;;;;;;;12.54;100.00;97436.50;5046008;28;19920;-82
2022/11/07 08:52:39;;;;;;;;;;;;;;;12.65;100.00;97437.41;5034453;28;20294;-81
2022/11/07 08:55:04;;;;;;;;;;;;;;;12.55;100.00;97443.34;5042228;28;19924;-82
2022/11/07 08:57:30;;;;;;;;;;;;;;;12.77;100.00;97439.88;5045461;28;20341;-80
2022/11/07 08:59:59;;;;;;;;;;;;;;;12.67;100.00;97448.47;5062132;28;19924;-85
2022/11/07 09:02:24;;;;;;;;;;;;;;;12.59;100.00;97444.47;5040799;28;20426;-79
2022/11/07 09:04:49;;;;;;;;;;;;;;;12.63;100.00;97457.91;5042754;28;20080;-80
2022/11/07 09:07:15;;;;;;;;;;;;;;;12.83;100.00;97449.44;5056687;28;19913;-81
2022/11/07 09:09:40;;;;;;;;;;;;;;;13.03;100.00;97442.78;5046657;28;20289;-80
2022/11/07 09:12:07;;;;;;;;;;;;;;;12.85;100.00;97452.63;5055926;28;19916;-81
2022/11/07 09:14:33;;;;;;;;;;;;;;;13.18;100.00;97447.38;5042493;28;19984;-80
2022/11/07 09:16:58;;;;;;;;;;;;;;;13.24;100.00;97455.09;5040734;28;19917;-81
2022/11/07 09:19:23;;;;;;;;;;;;;;;12.73;100.00;97451.97;5043334;28;20366;-81
2022/11/07 09:21:49;;;;;;;;;;;;;;;13.26;100.00;97460.09;5046126;28;19924;-81
2022/11/07 09:24:15;;;;;;;;;;;;;;;13.23;100.00;97457.94;5028576;28;19916;-80
2022/11/07 09:26:41;;;;;;;;;;;;;;;13.34;100.00;97456.19;5045350;28;20007;-81
2022/11/07 09:29:06;;;;;;;;;;;;;;;13.35;100.00;97449.88;5045939;28;20452;-81
2022/11/07 09:31:31;;;;;;;;;;;;;;;13.26;100.00;97463.53;5054192;28;19916;-81
2022/11/07 09:33:57;;;;;;;;;;;;;;;13.05;100.00;97451.22;5055749;28;19913;-81
2022/11/07 09:36:23;;;;;;;;;;;;;;;13.19;100.00;97451.59;5039925;28;19917;-81
2022/11/07 09:38:49;;;;;;;;;;;;;;;13.34;100.00;97454.38;5054967;28;19920;-81
2022/11/07 09:41:34;;;;;;;;;;;;;;;13.60;100.00;97456.44;5051485;28;19913;-81
2022/11/07 09:44:26;;;;;;;;;;;;;;;13.35;100.00;97455.16;5057940;28;20317;-81
2022/11/07 09:46:51;;;;;;;;;;;;;;;13.10;100.00;97443.34;5033133;28;19917;-80
2022/11/07 09:49:19;;;;;;;;;;;;;;;13.32;100.00;97455.66;5056501;28;20274;-81
2022/11/07 09:51:48;;;;;;;;;;;;;;;13.39;100.00;97451.00;5057132;28;19913;-80
2022/11/07 09:54:23;;;;;;;;;;;;;;;13.47;100.00;97458.44;5041254;28;19912;-80
2022/11/07 09:56:49;;;;;;;;;;;;;;;13.54;100.00;97464.28;5052176;28;20301;-80
2022/11/07 09:59:19;;;;;;;;;;;;;;;13.45;100.00;97459.72;5045052;28;19919;-81
2022/11/07 10:01:44;;;;;;;;;;;;;;;13.66;100.00;97461.50;5043525;28;19964;-80
2022/11/07 10:04:20;;;;;;;;;;;;;;;13.73;100.00;97463.88;5041997;28;20333;-81
2022/11/07 10:06:58;;;;;;;;;;;;;;;13.87;100.00;97460.81;5042972;28;19967;-80
2022/11/07 10:09:33;;;;;;;;;;;;;;;13.87;100.00;97468.72;5045794;28;19962;-80
2022/11/07 10:12:03;;;;;;;;;;;;;;;14.10;100.00;97463.06;5048968;28;19919;-80
2022/11/07 10:14:41;;;;;;;;;;;;;;;14.21;100.00;97473.66;5024730;28;19912;-80
2022/11/07 10:17:06;;;;;;;;;;;;;;;13.95;100.00;97471.69;5045078;28;19983;-80
2022/11/07 10:19:44;;;;;;;;;;;;;;;13.82;100.00;97475.56;5055169;28;19916;-80
2022/11/07 10:22:19;;;;;;;;;;;;;;;13.94;100.00;97472.72;5060345;28;19916;-80
2022/11/07 10:24:45;;;;;;;;;;;;;;;13.76;100.00;97481.88;5046476;28;19944;-81
2022/11/07 10:27:11;;;;;;;;;;;;;;;13.81;100.00;97484.53;5026862;28;19927;-80
2022/11/07 10:29:43;;;;;;;;;;;;;;;13.77;100.00;97487.91;5045659;28;19920;-81
2022/11/07 10:32:14;;;;;;;;;;;;;;;13.84;100.00;97494.56;5058356;28;20022;-80
2022/11/07 10:34:43;;;;;;;;;;;;;;;13.78;100.00;97490.31;5056905;28;19913;-80
2022/11/07 10:37:08;;;;;;;;;;;;;;;13.70;100.00;97488.13;5031168;28;19995;-81
2022/11/07 10:39:34;;;;;;;;;;;;;;;13.70;100.00;97494.22;5042485;28;19912;-81
2022/11/07 10:42:08;;;;;;;;;;;;;;;14.00;100.00;97492.81;5046209;28;20388;-79
2022/11/07 10:44:34;;;;;;;;;;;;;;;13.70;100.00;97488.94;5046784;28;19912;-81
2022/11/07 10:47:01;;;;;;;;;;;;;;;13.69;100.00;97497.09;5051474;28;19917;-83
2022/11/07 10:49:27;;;;;;;;;;;;;;;14.06;100.00;97498.91;5047392;28;19920;-82
2022/11/07 10:51:54;;;;;;;;;;;;;;;14.21;100.00;97497.41;5061360;28;19919;-82
2022/11/07 10:54:20;;;;;;;;;;;;;;;14.23;100.00;97496.09;5051483;28;19998;-83
2022/11/07 10:56:47;;;;;;;;;;;;;;;13.99;100.00;97493.09;5045033;28;19956;-84
2022/11/07 10:59:20;;;;;;;;;;;;;;;14.24;100.00;97502.19;5049019;28;19962;-84
2022/11/07 11:01:49;;;;;;;;;;;;;;;14.13;100.00;97499.47;5052847;28;19952;-84
2022/11/07 11:04:25;;;;;;;;;;;;;;;14.18;100.00;97487.38;5042884;28;19918;-83
2022/11/07 11:07:04;;;;;;;;;;;;;;;14.29;100.00;97491.63;5043253;28;20441;-83
2022/11/07 11:09:34;;;;;;;;;;;;;;;14.32;100.00;97480.56;5061629;28;19923;-84
2022/11/07 11:12:04;;;;;;;;;;;;;;;14.50;100.00;97489.91;5041677;28;19919;-84
2022/11/07 11:14:30;;;;;;;;;;;;;;;14.54;100.00;97490.16;5046130;28;19952;-84
2022/11/07 11:16:55;;;;;;;;;;;;;;;14.54;100.00;97482.22;5027110;28;20326;-83
2022/11/07 11:19:23;;;;;;;;;;;;;;;14.55;100.00;97487.25;5028015;28;19944;-84
2022/11/07 11:21:49;;;;;;;;;;;;;;;14.65;100.00;97480.44;5048604;28;20008;-84
2022/11/07 11:24:36;;;;;;;;;;;;;;;14.80;100.00;97472.56;5040783;28;19912;-83
2022/11/07 11:27:21;;;;;;;;;;;;;;;14.63;100.00;97485.16;5022333;28;19913;-84
2022/11/07 11:30:06;;;;;;;;;;;;;;;14.41;100.00;97473.75;5050421;28;20039;-83
2022/11/07 11:32:51;;;;;;;;;;;;;;;14.85;100.00;97482.38;5041335;28;19913;-83
2022/11/07 11:35:31;;;;;;;;;;;;;;;14.90;100.00;97477.09;5055883;28;20355;-83
2022/11/07 11:38:11;;;;;;;;;;;;;;;14.73;100.00;97474.69;5043746;28;19913;-83
2022/11/07 11:40:38;;;;;;;;;;;;;;;14.80;100.00;97474.44;5042780;28;20001;-85
2022/11/07 11:43:09;;;;;;;;;;;;;;;14.78;100.00;97473.91;5064819;28;19929;-82
2022/11/07 11:45:38;;;;;;;;;;;;;;;14.52;100.00;97482.50;5050187;28;20387;-83
2022/11/07 11:48:06;;;;;;;;;;;;;;;14.77;100.00;97477.59;5027575;28;19917;-84
2022/11/07 11:50:42;;;;;;;;;;;;;;;14.90;100.00;97465.75;5042353;28;20007;-85
2022/11/07 11:53:13;;;;;;;;;;;;;;;14.92;100.00;97472.34;5037637;28;19913;-84
2022/11/07 11:55:43;;;;;;;;;;;;;;;14.57;100.00;97469.31;5061859;28;19970;-84
2022/11/07 11:58:32;;;;;;;;;;;;;;;14.69;100.00;97471.72;5042076;28;19919;-84
2022/11/07 12:01:18;;;;;;;;;;;;;;;15.02;100.00;97473.41;5024686;28;19944;-84
2022/11/07 12:03:55;;;;;;;;;;;;;;;15.18;100.00;97475.03;5051852;28;19904;-84
2022/11/07 12:06:27;;;;;;;;;;;;;;;15.04;100.00;97466.81;5063734;28;19942;-84
2022/11/07 12:08:52;;;;;;;;;;;;;;;15.12;100.00;97463.66;5057541;28;19912;-83
2022/11/07 12:11:20;;;;;;;;;;;;;;;15.42;100.00;97469.22;5052620;28;20372;-84
2022/11/07 12:13:57;;;;;;;;;;;;;;;15.36;100.00;97472.94;5050280;28;20375;-83
2022/11/07 12:16:41;;;;;;;;;;;;;;;15.24;100.00;97466.03;5025499;28;20324;-83
2022/11/07 12:19:26;;;;;;;;;;;;;;;15.08;100.00;97475.00;5042993;28;20255;-83
2022/11/07 12:22:10;;;;;;;;;;;;;;;15.17;100.00;97470.00;5039144;28;19935;-84
2022/11/07 12:24:52;;;;;;;;;;;;;;;15.14;100.00;97466.81;5052559;28;19912;-83
2022/11/07 12:27:38;;;;;;;;;;;;;;;15.32;100.00;97471.84;5055217;28;20038;-83
2022/11/07 12:30:11;;;;;;;;;;;;;;;14.96;100.00;97460.22;5024709;28;19979;-84
2022/11/07 12:33:13;;;;;;;;;;;;;;;14.96;100.00;97460.22;5042071;28;19923;-84
2022/11/07 12:35:38;;;;;;;;;;;;;;;14.91;100.00;97457.53;4955089;28;19918;-83
2022/11/07 12:38:06;;;;;;;;;;;;;;;14.96;100.00;97452.28;5022133;28;19920;-83
2022/11/07 12:40:38;;;;;;;;;;;;;;;14.92;100.00;97458.34;5044002;28;19919;-83
2022/11/07 12:43:24;;;;;;;;;;;;;;;14.65;100.00;97454.81;5039395;28;19919;-84
2022/11/07 12:45:53;;;;;;;;;;;;;;;14.80;100.00;97453.31;5047401;28;20290;-84
2022/11/07 12:48:37;;;;;;;;;;;;;;;14.59;100.00;97453.22;5047504;28;19917;-84
2022/11/07 12:51:15;;;;;;;;;;;;;;;14.46;100.00;97457.16;5027026;28;20401;-84
2022/11/07 12:53:59;;;;;;;;;;;;;;;14.47;100.00;97452.66;5040877;28;20256;-83
2022/11/07 12:56:31;;;;;;;;;;;;;;;14.64;100.00;97457.72;5040685;28;19913;-84
2022/11/07 12:58:58;;;;;;;;;;;;;;;14.50;100.00;97452.13;5051113;28;19943;-83